Terminal Aerodrome Forecast
Issued by NWS

Home | Current Version | Previous Version | Text Only | Print | Product List | Glossary On
Versions: 1 2 3 4 5 6 7 8 9 10 11 12 13 14 15 16 17
770
FTUS42 KMLB 241741
TAFSFB
TAF
KSFB 241741Z 2418/2518 05009KT P6SM BKN035
     FM250000 02004KT P6SM FEW030
     FM250700 00000KT 2SM BR SCT004 BKN010
      TEMPO 2509/2513 1/2SM FG BKN004
     FM251500 25006KT P6SM SCT015 SCT035=

USA.gov is the U.S. government's official web portal to all federal, state and local government web resources and services.